PHOENIX SKY HARBOR INTL

KPHX (PHX)
Phoenix, Arizona
Towered

Vatsim Metar:
KPHX 251751Z 10005KT 10SM FEW100 31/03 A2993 RMK AO2 SLP116 T03110028 10311 20200 50001

No ATC Online

Traffic

Inbound:
Ident
Type
Name
ETA
Phase
AAL69
A320/L
Bawer Habib
18:45 Z
Descent
ASA575
B737/L
ANTHONY LEVIN
19:04 Z
Cruse
DAL347
B738/I
chris iwanow KBOSOW
19:23 Z
Cruse

Outbound:
Ident
Type
Name
Destination
Phase
DAL1470
A320/L
Robert Neveau KPHX
KATL
Climb